Terminal Aerodrome Forecast
Issued by NWS

Home | Current Version | Previous Version | Text Only | Print | Product List | Glossary On
Versions: 1 2 3 4 5 6 7 8 9 10 11 12 13 14 15 16 17 18 19
000
FTUS44 KJAN 021924 AAA
TAFHKS
TAF AMD
KHKS 021924Z 0219/0318 34006KT 5SM -RA VCTS SCT008 BKN012CB OVC050
     FM030000 35006KT P6SM -RA BKN012 OVC025
     FM030600 36005KT P6SM SCT025 BKN050=

USA.gov is the U.S. government's official web portal to all federal, state and local government web resources and services.